sensor_id;sensor_type;location;lat;lon;timestamp;temperature;humidity
12761;DHT22;6444;49.742;6.114;2023-04-09T00:00:40;10.50;99.90
12761;DHT22;6444;49.742;6.114;2023-04-09T00:03:06;10.70;99.90
12761;DHT22;6444;49.742;6.114;2023-04-09T00:05:37;10.90;99.90
12761;DHT22;6444;49.742;6.114;2023-04-09T00:08:00;10.90;99.90
12761;DHT22;6444;49.742;6.114;2023-04-09T00:10:27;10.90;99.90
12761;DHT22;6444;49.742;6.114;2023-04-09T00:12:54;10.90;99.90
12761;DHT22;6444;49.742;6.114;2023-04-09T00:15:20;10.90;99.90
12761;DHT22;6444;49.742;6.114;2023-04-09T00:17:47;10.80;99.90
12761;DHT22;6444;49.742;6.114;2023-04-09T00:20:13;10.70;99.90
12761;DHT22;6444;49.742;6.114;2023-04-09T00:22:40;10.60;99.90
12761;DHT22;6444;49.742;6.114;2023-04-09T00:25:07;10.30;99.90
12761;DHT22;6444;49.742;6.114;2023-04-09T00:27:34;10.20;99.90
12761;DHT22;6444;49.742;6.114;2023-04-09T00:30:01;10.20;99.90
12761;DHT22;6444;49.742;6.114;2023-04-09T00:32:27;9.70;99.90
12761;DHT22;6444;49.742;6.114;2023-04-09T00:34:54;9.40;99.90
12761;DHT22;6444;49.742;6.114;2023-04-09T00:37:21;9.40;99.90
12761;DHT22;6444;49.742;6.114;2023-04-09T00:39:48;9.40;99.90
12761;DHT22;6444;49.742;6.114;2023-04-09T00:42:15;9.30;99.90
12761;DHT22;6444;49.742;6.114;2023-04-09T00:44:41;9.50;99.90
12761;DHT22;6444;49.742;6.114;2023-04-09T00:47:08;9.40;99.90
12761;DHT22;6444;49.742;6.114;2023-04-09T00:49:35;9.40;99.90
12761;DHT22;6444;49.742;6.114;2023-04-09T00:52:02;9.70;99.90
12761;DHT22;6444;49.742;6.114;2023-04-09T00:54:29;9.70;99.90
12761;DHT22;6444;49.742;6.114;2023-04-09T00:56:55;9.80;99.90
12761;DHT22;6444;49.742;6.114;2023-04-09T00:59:23;9.70;99.90
12761;DHT22;6444;49.742;6.114;2023-04-09T01:01:48;9.70;99.90
12761;DHT22;6444;49.742;6.114;2023-04-09T01:04:16;9.50;99.90
12761;DHT22;6444;49.742;6.114;2023-04-09T01:06:53;9.40;99.90
12761;DHT22;6444;49.742;6.114;2023-04-09T01:09:36;9.30;99.90
12761;DHT22;6444;49.742;6.114;2023-04-09T01:12:08;9.20;99.90
12761;DHT22;6444;49.742;6.114;2023-04-09T01:14:41;9.90;99.90
12761;DHT22;6444;49.742;6.114;2023-04-09T01:17:11;9.90;99.90
12761;DHT22;6444;49.742;6.114;2023-04-09T01:19:52;10.20;99.90
12761;DHT22;6444;49.742;6.114;2023-04-09T01:22:28;9.60;99.90
12761;DHT22;6444;49.742;6.114;2023-04-09T01:27:17;9.90;99.90
12761;DHT22;6444;49.742;6.114;2023-04-09T01:29:44;10.10;99.90
12761;DHT22;6444;49.742;6.114;2023-04-09T01:32:10;10.20;99.90
12761;DHT22;6444;49.742;6.114;2023-04-09T01:34:37;10.10;99.90
12761;DHT22;6444;49.742;6.114;2023-04-09T01:37:04;10.20;99.90
12761;DHT22;6444;49.742;6.114;2023-04-09T01:39:31;10.20;99.90
12761;DHT22;6444;49.742;6.114;2023-04-09T01:41:58;10.10;99.90
12761;DHT22;6444;49.742;6.114;2023-04-09T01:44:24;9.90;99.90
12761;DHT22;6444;49.742;6.114;2023-04-09T01:46:54;10.00;99.90
12761;DHT22;6444;49.742;6.114;2023-04-09T01:49:20;10.10;99.90
12761;DHT22;6444;49.742;6.114;2023-04-09T01:51:47;10.00;99.90
12761;DHT22;6444;49.742;6.114;2023-04-09T01:54:14;9.80;99.90
12761;DHT22;6444;49.742;6.114;2023-04-09T01:59:07;8.70;99.90
12761;DHT22;6444;49.742;6.114;2023-04-09T02:02:02;8.40;99.90
12761;DHT22;6444;49.742;6.114;2023-04-09T02:04:32;9.00;99.90
12761;DHT22;6444;49.742;6.114;2023-04-09T02:07:09;9.20;99.90
12761;DHT22;6444;49.742;6.114;2023-04-09T02:09:33;9.10;99.90
12761;DHT22;6444;49.742;6.114;2023-04-09T02:12:00;8.90;99.90
12761;DHT22;6444;49.742;6.114;2023-04-09T02:14:25;9.10;99.90
12761;DHT22;6444;49.742;6.114;2023-04-09T02:16:53;9.60;99.90
12761;DHT22;6444;49.742;6.114;2023-04-09T02:19:19;9.60;99.90
12761;DHT22;6444;49.742;6.114;2023-04-09T02:21:46;9.70;99.90
12761;DHT22;6444;49.742;6.114;2023-04-09T02:24:12;9.80;99.90
12761;DHT22;6444;49.742;6.114;2023-04-09T02:26:39;9.90;99.90
12761;DHT22;6444;49.742;6.114;2023-04-09T02:29:06;10.00;99.90
12761;DHT22;6444;49.742;6.114;2023-04-09T02:31:32;10.10;99.90
12761;DHT22;6444;49.742;6.114;2023-04-09T02:33:59;10.00;99.90
12761;DHT22;6444;49.742;6.114;2023-04-09T02:36:26;9.40;99.90
12761;DHT22;6444;49.742;6.114;2023-04-09T02:38:52;9.60;99.90
12761;DHT22;6444;49.742;6.114;2023-04-09T02:41:19;9.70;99.90
12761;DHT22;6444;49.742;6.114;2023-04-09T02:43:45;9.50;99.90
12761;DHT22;6444;49.742;6.114;2023-04-09T02:46:12;9.40;99.90
12761;DHT22;6444;49.742;6.114;2023-04-09T02:48:39;9.10;99.90
12761;DHT22;6444;49.742;6.114;2023-04-09T02:51:05;8.90;99.90
12761;DHT22;6444;49.742;6.114;2023-04-09T02:53:32;8.80;99.90
12761;DHT22;6444;49.742;6.114;2023-04-09T02:55:59;8.90;99.90
12761;DHT22;6444;49.742;6.114;2023-04-09T02:58:25;9.00;99.90
12761;DHT22;6444;49.742;6.114;2023-04-09T03:00:52;8.90;99.90
12761;DHT22;6444;49.742;6.114;2023-04-09T03:03:18;9.00;99.90
12761;DHT22;6444;49.742;6.114;2023-04-09T03:05:45;8.80;99.90
12761;DHT22;6444;49.742;6.114;2023-04-09T03:08:13;8.70;99.90
12761;DHT22;6444;49.742;6.114;2023-04-09T03:10:39;8.70;99.90
12761;DHT22;6444;49.742;6.114;2023-04-09T03:13:06;8.80;99.90
12761;DHT22;6444;49.742;6.114;2023-04-09T03:15:32;8.90;99.90
12761;DHT22;6444;49.742;6.114;2023-04-09T03:17:59;8.30;99.90
12761;DHT22;6444;49.742;6.114;2023-04-09T03:20:26;8.40;99.90
12761;DHT22;6444;49.742;6.114;2023-04-09T03:22:52;8.40;99.90
12761;DHT22;6444;49.742;6.114;2023-04-09T03:25:19;8.30;99.90
12761;DHT22;6444;49.742;6.114;2023-04-09T03:27:46;7.40;99.90
12761;DHT22;6444;49.742;6.114;2023-04-09T03:30:12;7.30;99.90
12761;DHT22;6444;49.742;6.114;2023-04-09T03:32:39;7.80;99.90
12761;DHT22;6444;49.742;6.114;2023-04-09T03:35:05;8.10;99.90
12761;DHT22;6444;49.742;6.114;2023-04-09T03:37:33;7.30;99.90
12761;DHT22;6444;49.742;6.114;2023-04-09T03:39:59;7.20;99.90
12761;DHT22;6444;49.742;6.114;2023-04-09T03:42:26;6.30;99.90
12761;DHT22;6444;49.742;6.114;2023-04-09T03:44:53;6.00;99.90
12761;DHT22;6444;49.742;6.114;2023-04-09T03:47:20;6.20;99.90
12761;DHT22;6444;49.742;6.114;2023-04-09T03:49:47;6.20;99.90
12761;DHT22;6444;49.742;6.114;2023-04-09T03:52:13;6.70;99.90
12761;DHT22;6444;49.742;6.114;2023-04-09T03:54:40;6.30;99.90
12761;DHT22;6444;49.742;6.114;2023-04-09T03:57:07;6.50;99.90
12761;DHT22;6444;49.742;6.114;2023-04-09T03:59:34;6.40;99.90
12761;DHT22;6444;49.742;6.114;2023-04-09T04:02:01;6.70;99.90
12761;DHT22;6444;49.742;6.114;2023-04-09T04:04:27;6.80;99.90
12761;DHT22;6444;49.742;6.114;2023-04-09T04:06:55;6.40;99.90
12761;DHT22;6444;49.742;6.114;2023-04-09T04:09:21;6.40;99.90
12761;DHT22;6444;49.742;6.114;2023-04-09T04:11:48;6.80;99.90
12761;DHT22;6444;49.742;6.114;2023-04-09T04:14:14;7.00;99.90
12761;DHT22;6444;49.742;6.114;2023-04-09T04:16:41;6.70;99.90
12761;DHT22;6444;49.742;6.114;2023-04-09T04:19:08;6.90;99.90
12761;DHT22;6444;49.742;6.114;2023-04-09T04:21:34;6.90;99.90
12761;DHT22;6444;49.742;6.114;2023-04-09T04:24:01;6.70;99.90
12761;DHT22;6444;49.742;6.114;2023-04-09T04:26:28;6.50;99.90
12761;DHT22;6444;49.742;6.114;2023-04-09T04:28:54;6.50;99.90
12761;DHT22;6444;49.742;6.114;2023-04-09T04:31:21;6.20;99.90
12761;DHT22;6444;49.742;6.114;2023-04-09T04:33:47;6.40;99.90
12761;DHT22;6444;49.742;6.114;2023-04-09T04:36:15;6.70;99.90
12761;DHT22;6444;49.742;6.114;2023-04-09T04:38:41;6.60;99.90
12761;DHT22;6444;49.742;6.114;2023-04-09T04:41:09;6.40;99.90
12761;DHT22;6444;49.742;6.114;2023-04-09T04:43:35;6.40;99.90
12761;DHT22;6444;49.742;6.114;2023-04-09T04:46:01;6.50;99.90
12761;DHT22;6444;49.742;6.114;2023-04-09T04:48:28;6.10;99.90
12761;DHT22;6444;49.742;6.114;2023-04-09T04:50:58;6.30;99.90
12761;DHT22;6444;49.742;6.114;2023-04-09T04:53:24;5.60;99.90
12761;DHT22;6444;49.742;6.114;2023-04-09T04:55:51;4.70;99.90
12761;DHT22;6444;49.742;6.114;2023-04-09T04:58:17;4.20;99.90
12761;DHT22;6444;49.742;6.114;2023-04-09T05:00:44;4.10;99.90
12761;DHT22;6444;49.742;6.114;2023-04-09T05:03:10;4.00;99.90
12761;DHT22;6444;49.742;6.114;2023-04-09T05:05:37;3.90;99.90
12761;DHT22;6444;49.742;6.114;2023-04-09T05:08:04;4.30;99.90
12761;DHT22;6444;49.742;6.114;2023-04-09T05:10:30;4.50;99.90
12761;DHT22;6444;49.742;6.114;2023-04-09T05:12:57;5.40;99.90
12761;DHT22;6444;49.742;6.114;2023-04-09T05:15:24;5.80;99.90
12761;DHT22;6444;49.742;6.114;2023-04-09T05:17:50;5.90;99.90
12761;DHT22;6444;49.742;6.114;2023-04-09T05:20:18;6.00;99.90
12761;DHT22;6444;49.742;6.114;2023-04-09T05:22:44;5.90;99.90
12761;DHT22;6444;49.742;6.114;2023-04-09T05:25:11;5.80;99.90
12761;DHT22;6444;49.742;6.114;2023-04-09T05:27:37;6.00;99.90
12761;DHT22;6444;49.742;6.114;2023-04-09T05:30:04;6.20;99.90
12761;DHT22;6444;49.742;6.114;2023-04-09T05:32:31;6.50;99.90
12761;DHT22;6444;49.742;6.114;2023-04-09T05:34:58;6.90;99.90
12761;DHT22;6444;49.742;6.114;2023-04-09T05:37:25;6.80;99.90
12761;DHT22;6444;49.742;6.114;2023-04-09T05:39:51;7.00;99.90
12761;DHT22;6444;49.742;6.114;2023-04-09T05:42:18;7.20;99.90
12761;DHT22;6444;49.742;6.114;2023-04-09T05:44:45;7.50;99.90
12761;DHT22;6444;49.742;6.114;2023-04-09T05:47:12;7.50;99.90
12761;DHT22;6444;49.742;6.114;2023-04-09T05:49:39;8.00;99.90
12761;DHT22;6444;49.742;6.114;2023-04-09T05:52:05;8.40;99.90
12761;DHT22;6444;49.742;6.114;2023-04-09T05:54:33;9.30;99.90
12761;DHT22;6444;49.742;6.114;2023-04-09T05:56:59;9.30;99.90
12761;DHT22;6444;49.742;6.114;2023-04-09T05:59:26;9.50;99.90
12761;DHT22;6444;49.742;6.114;2023-04-09T06:01:52;10.10;99.90
12761;DHT22;6444;49.742;6.114;2023-04-09T06:04:20;11.70;99.90
12761;DHT22;6444;49.742;6.114;2023-04-09T06:06:47;11.60;99.90
12761;DHT22;6444;49.742;6.114;2023-04-09T06:09:13;11.70;99.90
12761;DHT22;6444;49.742;6.114;2023-04-09T06:11:40;12.50;99.90
12761;DHT22;6444;49.742;6.114;2023-04-09T06:14:06;13.00;99.90
12761;DHT22;6444;49.742;6.114;2023-04-09T06:16:33;13.20;99.90
12761;DHT22;6444;49.742;6.114;2023-04-09T06:19:00;13.10;99.90
12761;DHT22;6444;49.742;6.114;2023-04-09T06:21:27;14.90;99.90
12761;DHT22;6444;49.742;6.114;2023-04-09T06:23:54;14.80;99.90
12761;DHT22;6444;49.742;6.114;2023-04-09T06:26:20;16.20;99.90
12761;DHT22;6444;49.742;6.114;2023-04-09T06:28:47;17.10;99.90
12761;DHT22;6444;49.742;6.114;2023-04-09T06:31:14;17.40;99.90
12761;DHT22;6444;49.742;6.114;2023-04-09T06:33:40;17.90;99.90
12761;DHT22;6444;49.742;6.114;2023-04-09T06:36:08;19.70;99.90
12761;DHT22;6444;49.742;6.114;2023-04-09T06:38:34;19.60;99.90
12761;DHT22;6444;49.742;6.114;2023-04-09T06:41:01;19.00;96.00
12761;DHT22;6444;49.742;6.114;2023-04-09T06:43:28;19.50;97.60
12761;DHT22;6444;49.742;6.114;2023-04-09T06:45:54;19.80;98.50
12761;DHT22;6444;49.742;6.114;2023-04-09T06:48:22;21.30;95.10
12761;DHT22;6444;49.742;6.114;2023-04-09T06:50:48;21.30;95.10
12761;DHT22;6444;49.742;6.114;2023-04-09T06:53:15;21.10;95.20
12761;DHT22;6444;49.742;6.114;2023-04-09T06:55:41;21.90;95.10
12761;DHT22;6444;49.742;6.114;2023-04-09T06:58:08;23.10;93.70
12761;DHT22;6444;49.742;6.114;2023-04-09T07:00:35;24.20;91.60
12761;DHT22;6444;49.742;6.114;2023-04-09T07:03:01;22.80;87.90
12761;DHT22;6444;49.742;6.114;2023-04-09T07:05:28;23.20;91.90
12761;DHT22;6444;49.742;6.114;2023-04-09T07:07:55;23.10;87.20
12761;DHT22;6444;49.742;6.114;2023-04-09T07:10:21;22.20;89.30
12761;DHT22;6444;49.742;6.114;2023-04-09T07:12:48;22.80;89.80
12761;DHT22;6444;49.742;6.114;2023-04-09T07:15:14;22.30;89.70
12761;DHT22;6444;49.742;6.114;2023-04-09T07:17:41;22.80;87.90
12761;DHT22;6444;49.742;6.114;2023-04-09T07:20:08;23.40;86.50
12761;DHT22;6444;49.742;6.114;2023-04-09T07:22:34;22.20;88.80
12761;DHT22;6444;49.742;6.114;2023-04-09T07:25:01;22.30;90.30
12761;DHT22;6444;49.742;6.114;2023-04-09T07:27:28;23.90;86.80
12761;DHT22;6444;49.742;6.114;2023-04-09T07:29:55;24.40;85.80
12761;DHT22;6444;49.742;6.114;2023-04-09T07:32:21;24.30;85.20
12761;DHT22;6444;49.742;6.114;2023-04-09T07:34:49;25.00;84.00
12761;DHT22;6444;49.742;6.114;2023-04-09T07:37:14;26.10;83.60
12761;DHT22;6444;49.742;6.114;2023-04-09T07:39:42;28.70;82.00
12761;DHT22;6444;49.742;6.114;2023-04-09T07:42:08;28.50;81.90
12761;DHT22;6444;49.742;6.114;2023-04-09T07:44:35;27.90;76.10
12761;DHT22;6444;49.742;6.114;2023-04-09T07:47:05;27.60;77.70
12761;DHT22;6444;49.742;6.114;2023-04-09T07:49:28;26.90;80.10
12761;DHT22;6444;49.742;6.114;2023-04-09T07:51:55;28.00;80.40
12761;DHT22;6444;49.742;6.114;2023-04-09T07:54:22;29.20;79.30
12761;DHT22;6444;49.742;6.114;2023-04-09T07:56:48;30.10;76.30
12761;DHT22;6444;49.742;6.114;2023-04-09T07:59:15;29.40;77.60
12761;DHT22;6444;49.742;6.114;2023-04-09T08:01:44;28.80;72.60
12761;DHT22;6444;49.742;6.114;2023-04-09T08:04:11;25.40;79.00
12761;DHT22;6444;49.742;6.114;2023-04-09T08:06:38;25.80;81.20
12761;DHT22;6444;49.742;6.114;2023-04-09T08:09:05;25.70;81.00
12761;DHT22;6444;49.742;6.114;2023-04-09T08:11:31;28.10;79.40
12761;DHT22;6444;49.742;6.114;2023-04-09T08:13:58;28.60;78.30
12761;DHT22;6444;49.742;6.114;2023-04-09T08:16:25;28.00;73.60
12761;DHT22;6444;49.742;6.114;2023-04-09T08:18:52;24.10;78.80
12761;DHT22;6444;49.742;6.114;2023-04-09T08:21:19;24.00;78.70
12761;DHT22;6444;49.742;6.114;2023-04-09T08:23:45;24.80;81.90
12761;DHT22;6444;49.742;6.114;2023-04-09T08:26:12;26.70;79.20
12761;DHT22;6444;49.742;6.114;2023-04-09T08:28:39;28.50;73.40
12761;DHT22;6444;49.742;6.114;2023-04-09T08:31:05;29.80;75.10
12761;DHT22;6444;49.742;6.114;2023-04-09T08:33:32;29.40;73.60
12761;DHT22;6444;49.742;6.114;2023-04-09T08:35:58;30.00;74.50
12761;DHT22;6444;49.742;6.114;2023-04-09T08:38:25;31.10;73.30
12761;DHT22;6444;49.742;6.114;2023-04-09T08:40:52;31.60;68.30
12761;DHT22;6444;49.742;6.114;2023-04-09T08:43:19;31.30;71.90
12761;DHT22;6444;49.742;6.114;2023-04-09T08:45:46;32.60;70.00
12761;DHT22;6444;49.742;6.114;2023-04-09T08:48:13;32.40;69.80
12761;DHT22;6444;49.742;6.114;2023-04-09T08:50:39;32.50;68.90
12761;DHT22;6444;49.742;6.114;2023-04-09T08:53:07;32.00;65.80
12761;DHT22;6444;49.742;6.114;2023-04-09T08:55:33;31.80;67.80
12761;DHT22;6444;49.742;6.114;2023-04-09T08:57:59;32.10;68.30
12761;DHT22;6444;49.742;6.114;2023-04-09T09:00:27;33.80;65.30
12761;DHT22;6444;49.742;6.114;2023-04-09T09:03:09;33.70;64.90
12761;DHT22;6444;49.742;6.114;2023-04-09T09:05:35;33.50;65.10
12761;DHT22;6444;49.742;6.114;2023-04-09T09:08:02;31.90;63.30
12761;DHT22;6444;49.742;6.114;2023-04-09T09:13:26;25.10;71.40
12761;DHT22;6444;49.742;6.114;2023-04-09T09:16:10;25.50;74.40
12761;DHT22;6444;49.742;6.114;2023-04-09T09:18:43;27.20;69.90
12761;DHT22;6444;49.742;6.114;2023-04-09T09:21:13;25.80;69.70
12761;DHT22;6444;49.742;6.114;2023-04-09T09:23:39;27.20;71.90
12761;DHT22;6444;49.742;6.114;2023-04-09T09:26:16;27.10;71.70
12761;DHT22;6444;49.742;6.114;2023-04-09T09:28:42;28.90;70.30
12761;DHT22;6444;49.742;6.114;2023-04-09T09:31:09;30.60;68.20
12761;DHT22;6444;49.742;6.114;2023-04-09T09:33:35;31.30;65.80
12761;DHT22;6444;49.742;6.114;2023-04-09T09:36:02;30.60;61.60
12761;DHT22;6444;49.742;6.114;2023-04-09T09:38:31;27.80;62.40
12761;DHT22;6444;49.742;6.114;2023-04-09T09:40:57;23.80;63.60
12761;DHT22;6444;49.742;6.114;2023-04-09T09:43:24;20.70;69.70
12761;DHT22;6444;49.742;6.114;2023-04-09T09:45:51;18.30;75.20
12761;DHT22;6444;49.742;6.114;2023-04-09T09:48:18;16.90;78.90
12761;DHT22;6444;49.742;6.114;2023-04-09T09:50:45;16.80;78.70
12761;DHT22;6444;49.742;6.114;2023-04-09T09:53:11;16.90;80.80
12761;DHT22;6444;49.742;6.114;2023-04-09T09:55:42;16.90;80.40
12761;DHT22;6444;49.742;6.114;2023-04-09T09:58:18;17.50;80.60
12761;DHT22;6444;49.742;6.114;2023-04-09T10:00:43;17.60;79.30
12761;DHT22;6444;49.742;6.114;2023-04-09T10:03:13;16.60;81.90
12761;DHT22;6444;49.742;6.114;2023-04-09T10:05:39;16.20;82.90
12761;DHT22;6444;49.742;6.114;2023-04-09T10:08:05;17.00;82.90
12761;DHT22;6444;49.742;6.114;2023-04-09T10:10:32;17.90;81.40
12761;DHT22;6444;49.742;6.114;2023-04-09T10:12:58;18.30;79.20
12761;DHT22;6444;49.742;6.114;2023-04-09T10:15:27;18.90;77.10
12761;DHT22;6444;49.742;6.114;2023-04-09T10:17:52;17.90;78.60
12761;DHT22;6444;49.742;6.114;2023-04-09T10:20:33;17.20;79.80
12761;DHT22;6444;49.742;6.114;2023-04-09T10:22:45;16.80;82.60
12761;DHT22;6444;49.742;6.114;2023-04-09T10:25:12;17.10;80.80
12761;DHT22;6444;49.742;6.114;2023-04-09T10:27:39;17.00;80.70
12761;DHT22;6444;49.742;6.114;2023-04-09T10:30:06;16.20;82.90
12761;DHT22;6444;49.742;6.114;2023-04-09T10:32:35;16.40;84.70
12761;DHT22;6444;49.742;6.114;2023-04-09T10:35:02;16.70;84.10
12761;DHT22;6444;49.742;6.114;2023-04-09T10:37:30;17.80;83.20
12761;DHT22;6444;49.742;6.114;2023-04-09T10:39:57;18.90;79.60
12761;DHT22;6444;49.742;6.114;2023-04-09T10:42:34;19.70;78.40
12761;DHT22;6444;49.742;6.114;2023-04-09T10:45:06;20.40;77.70
12761;DHT22;6444;49.742;6.114;2023-04-09T10:47:32;20.80;77.70
12761;DHT22;6444;49.742;6.114;2023-04-09T10:50:08;21.10;76.50
12761;DHT22;6444;49.742;6.114;2023-04-09T10:52:28;21.40;75.50
12761;DHT22;6444;49.742;6.114;2023-04-09T10:54:51;21.60;74.50
12761;DHT22;6444;49.742;6.114;2023-04-09T10:57:19;21.10;74.40
12761;DHT22;6444;49.742;6.114;2023-04-09T10:59:46;19.30;77.90
12761;DHT22;6444;49.742;6.114;2023-04-09T11:05:18;19.20;78.10
12761;DHT22;6444;49.742;6.114;2023-04-09T11:07:39;17.80;80.20
12761;DHT22;6444;49.742;6.114;2023-04-09T11:10:05;17.60;81.40
12761;DHT22;6444;49.742;6.114;2023-04-09T11:12:32;17.40;83.40
12761;DHT22;6444;49.742;6.114;2023-04-09T11:14:58;18.40;81.60
12761;DHT22;6444;49.742;6.114;2023-04-09T11:17:25;19.60;80.10
12761;DHT22;6444;49.742;6.114;2023-04-09T11:19:51;20.70;77.80
12761;DHT22;6444;49.742;6.114;2023-04-09T11:22:18;20.10;77.90
12761;DHT22;6444;49.742;6.114;2023-04-09T11:24:45;20.80;77.50
12761;DHT22;6444;49.742;6.114;2023-04-09T11:27:11;21.60;76.80
12761;DHT22;6444;49.742;6.114;2023-04-09T11:29:38;20.70;75.50
12761;DHT22;6444;49.742;6.114;2023-04-09T11:32:04;20.30;78.50
12761;DHT22;6444;49.742;6.114;2023-04-09T11:34:31;19.40;80.10
12761;DHT22;6444;49.742;6.114;2023-04-09T11:36:58;18.40;81.10
12761;DHT22;6444;49.742;6.114;2023-04-09T11:39:24;17.70;82.90
12761;DHT22;6444;49.742;6.114;2023-04-09T11:41:51;17.20;86.30
12761;DHT22;6444;49.742;6.114;2023-04-09T11:44:19;17.10;86.00
12761;DHT22;6444;49.742;6.114;2023-04-09T11:46:44;16.90;87.60
12761;DHT22;6444;49.742;6.114;2023-04-09T11:49:11;17.00;86.00
12761;DHT22;6444;49.742;6.114;2023-04-09T11:51:37;16.90;84.80
12761;DHT22;6444;49.742;6.114;2023-04-09T11:54:04;17.00;85.50
12761;DHT22;6444;49.742;6.114;2023-04-09T11:56:31;17.20;84.70
12761;DHT22;6444;49.742;6.114;2023-04-09T11:58:57;16.60;85.00
12761;DHT22;6444;49.742;6.114;2023-04-09T12:01:24;16.80;85.00
12761;DHT22;6444;49.742;6.114;2023-04-09T12:03:52;19.70;82.30
12761;DHT22;6444;49.742;6.114;2023-04-09T12:06:18;19.60;82.20
12761;DHT22;6444;49.742;6.114;2023-04-09T12:08:44;20.70;78.60
12761;DHT22;6444;49.742;6.114;2023-04-09T12:11:12;19.20;79.60
12761;DHT22;6444;49.742;6.114;2023-04-09T12:13:39;18.10;83.50
12761;DHT22;6444;49.742;6.114;2023-04-09T12:16:05;18.10;83.40
12761;DHT22;6444;49.742;6.114;2023-04-09T12:18:34;19.20;83.00
12761;DHT22;6444;49.742;6.114;2023-04-09T12:20:58;20.40;80.60
12761;DHT22;6444;49.742;6.114;2023-04-09T12:23:26;22.10;76.10
12761;DHT22;6444;49.742;6.114;2023-04-09T12:25:52;22.00;76.00
12761;DHT22;6444;49.742;6.114;2023-04-09T12:28:19;22.70;75.50
12761;DHT22;6444;49.742;6.114;2023-04-09T12:30:46;21.90;76.10
12761;DHT22;6444;49.742;6.114;2023-04-09T12:33:13;20.30;77.40
12761;DHT22;6444;49.742;6.114;2023-04-09T12:35:40;20.20;77.30
12761;DHT22;6444;49.742;6.114;2023-04-09T12:38:06;19.20;78.90
12761;DHT22;6444;49.742;6.114;2023-04-09T12:40:35;17.70;80.90
12761;DHT22;6444;49.742;6.114;2023-04-09T12:43:02;16.80;83.40
12761;DHT22;6444;49.742;6.114;2023-04-09T12:45:29;17.00;83.40
12761;DHT22;6444;49.742;6.114;2023-04-09T12:47:55;16.80;85.00
12761;DHT22;6444;49.742;6.114;2023-04-09T12:50:22;17.60;84.60
12761;DHT22;6444;49.742;6.114;2023-04-09T12:52:49;19.00;83.50
12761;DHT22;6444;49.742;6.114;2023-04-09T12:55:15;19.40;80.50
12761;DHT22;6444;49.742;6.114;2023-04-09T12:57:42;19.40;81.10
12761;DHT22;6444;49.742;6.114;2023-04-09T13:00:08;18.60;83.60
12761;DHT22;6444;49.742;6.114;2023-04-09T13:02:35;18.20;83.90
12761;DHT22;6444;49.742;6.114;2023-04-09T13:05:02;18.60;82.20
12761;DHT22;6444;49.742;6.114;2023-04-09T13:07:28;18.30;82.30
12761;DHT22;6444;49.742;6.114;2023-04-09T13:09:56;17.60;82.20
12761;DHT22;6444;49.742;6.114;2023-04-09T13:12:22;17.60;82.10
12761;DHT22;6444;49.742;6.114;2023-04-09T13:14:49;18.70;82.90
12761;DHT22;6444;49.742;6.114;2023-04-09T13:17:16;19.30;79.60
12761;DHT22;6444;49.742;6.114;2023-04-09T13:19:43;17.70;82.40
12761;DHT22;6444;49.742;6.114;2023-04-09T13:22:10;17.60;82.30
12761;DHT22;6444;49.742;6.114;2023-04-09T13:24:36;17.30;82.70
12761;DHT22;6444;49.742;6.114;2023-04-09T13:27:06;18.10;82.30
12761;DHT22;6444;49.742;6.114;2023-04-09T13:29:32;17.60;82.60
12761;DHT22;6444;49.742;6.114;2023-04-09T13:31:59;16.90;84.30
12761;DHT22;6444;49.742;6.114;2023-04-09T13:34:26;16.40;85.20
12761;DHT22;6444;49.742;6.114;2023-04-09T13:36:52;17.20;84.70
12761;DHT22;6444;49.742;6.114;2023-04-09T13:39:19;17.30;81.90
12761;DHT22;6444;49.742;6.114;2023-04-09T13:41:46;17.50;83.00
12761;DHT22;6444;49.742;6.114;2023-04-09T13:44:12;18.00;82.50
12761;DHT22;6444;49.742;6.114;2023-04-09T13:46:40;18.50;81.00
12761;DHT22;6444;49.742;6.114;2023-04-09T13:49:06;18.50;80.80
12761;DHT22;6444;49.742;6.114;2023-04-09T13:51:33;17.90;82.70
12761;DHT22;6444;49.742;6.114;2023-04-09T13:53:59;18.20;82.60
12761;DHT22;6444;49.742;6.114;2023-04-09T13:56:26;17.70;82.90
12761;DHT22;6444;49.742;6.114;2023-04-09T13:58:53;17.00;84.00
12761;DHT22;6444;49.742;6.114;2023-04-09T14:01:19;17.20;82.90
12761;DHT22;6444;49.742;6.114;2023-04-09T14:03:46;17.80;82.10
12761;DHT22;6444;49.742;6.114;2023-04-09T14:06:13;17.20;81.60
12761;DHT22;6444;49.742;6.114;2023-04-09T14:08:39;16.70;83.60
12761;DHT22;6444;49.742;6.114;2023-04-09T14:11:06;16.70;83.80
12761;DHT22;6444;49.742;6.114;2023-04-09T14:13:33;17.20;82.20
12761;DHT22;6444;49.742;6.114;2023-04-09T14:16:00;17.80;78.90
12761;DHT22;6444;49.742;6.114;2023-04-09T14:18:26;17.70;78.70
12761;DHT22;6444;49.742;6.114;2023-04-09T14:20:53;17.80;78.90
12761;DHT22;6444;49.742;6.114;2023-04-09T14:23:20;18.10;78.70
12761;DHT22;6444;49.742;6.114;2023-04-09T14:25:46;18.70;77.70
12761;DHT22;6444;49.742;6.114;2023-04-09T14:28:13;18.80;77.20
12761;DHT22;6444;49.742;6.114;2023-04-09T14:30:40;19.00;78.20
12761;DHT22;6444;49.742;6.114;2023-04-09T14:33:06;18.50;79.70
12761;DHT22;6444;49.742;6.114;2023-04-09T14:35:33;18.10;81.10
12761;DHT22;6444;49.742;6.114;2023-04-09T14:37:59;18.40;81.30
12761;DHT22;6444;49.742;6.114;2023-04-09T14:40:26;19.00;79.40
12761;DHT22;6444;49.742;6.114;2023-04-09T14:42:53;19.50;76.30
12761;DHT22;6444;49.742;6.114;2023-04-09T14:45:19;19.30;78.90
12761;DHT22;6444;49.742;6.114;2023-04-09T14:47:46;19.70;78.30
12761;DHT22;6444;49.742;6.114;2023-04-09T14:50:13;18.90;76.30
12761;DHT22;6444;49.742;6.114;2023-04-09T14:52:39;18.00;77.60
12761;DHT22;6444;49.742;6.114;2023-04-09T14:55:06;18.00;78.60
12761;DHT22;6444;49.742;6.114;2023-04-09T14:57:32;18.20;78.10
12761;DHT22;6444;49.742;6.114;2023-04-09T14:59:59;18.10;77.20
12761;DHT22;6444;49.742;6.114;2023-04-09T15:02:26;18.30;78.50
12761;DHT22;6444;49.742;6.114;2023-04-09T15:04:52;18.90;77.50
12761;DHT22;6444;49.742;6.114;2023-04-09T15:09:48;17.60;79.20
12761;DHT22;6444;49.742;6.114;2023-04-09T15:12:15;17.40;79.50
12761;DHT22;6444;49.742;6.114;2023-04-09T15:14:41;17.20;79.70
12761;DHT22;6444;49.742;6.114;2023-04-09T15:17:08;16.90;80.20
12761;DHT22;6444;49.742;6.114;2023-04-09T15:19:35;16.90;81.10
12761;DHT22;6444;49.742;6.114;2023-04-09T15:22:02;16.50;81.30
12761;DHT22;6444;49.742;6.114;2023-04-09T15:24:29;16.40;81.20
12761;DHT22;6444;49.742;6.114;2023-04-09T15:26:55;16.20;82.70
12761;DHT22;6444;49.742;6.114;2023-04-09T15:29:22;16.00;83.40
12761;DHT22;6444;49.742;6.114;2023-04-09T15:31:51;15.80;82.90
12761;DHT22;6444;49.742;6.114;2023-04-09T15:34:16;16.00;82.00
12761;DHT22;6444;49.742;6.114;2023-04-09T15:36:43;16.00;81.90
12761;DHT22;6444;49.742;6.114;2023-04-09T15:39:09;16.40;81.10
12761;DHT22;6444;49.742;6.114;2023-04-09T15:41:36;16.80;81.40
12761;DHT22;6444;49.742;6.114;2023-04-09T15:44:02;17.50;80.20
12761;DHT22;6444;49.742;6.114;2023-04-09T15:46:30;17.00;81.30
12761;DHT22;6444;49.742;6.114;2023-04-09T15:48:56;16.90;81.10
12761;DHT22;6444;49.742;6.114;2023-04-09T15:51:23;17.40;79.70
12761;DHT22;6444;49.742;6.114;2023-04-09T15:53:50;17.50;78.90
12761;DHT22;6444;49.742;6.114;2023-04-09T15:56:17;17.90;78.60
12761;DHT22;6444;49.742;6.114;2023-04-09T15:58:44;17.80;78.50
12761;DHT22;6444;49.742;6.114;2023-04-09T16:01:10;18.10;79.30